Time;durP1;ratioP1;P1;durP2;ratioP2;P2;SDS_P1;SDS_P2;PMS_P1;PMS_P2;Temp;Humidity;BMP_temperature;BMP_pressure;BME280_temperature;BME280_humidity;BME280_pressure;Samples;Min_cycle;Max_cycle;Signal;HPM_P1;HPM_P2
2022/07/31 00:01:38;;;;;;;3.10;2.90;;;24.70;52.70;;;;;;4998695;28;20188;-74
2022/07/31 00:04:05;;;;;;;3.20;2.90;;;24.70;52.70;;;;;;5014819;28;20215;-73
2022/07/31 00:06:32;;;;;;;3.55;3.00;;;24.70;52.80;;;;;;4998300;28;20225;-73
2022/07/31 00:08:59;;;;;;;3.55;3.25;;;24.70;52.80;;;;;;4998337;28;20201;-73
2022/07/31 00:11:25;;;;;;;3.13;2.83;;;24.70;52.80;;;;;;4998387;28;20208;-73
2022/07/31 00:13:54;;;;;;;3.00;2.80;;;24.70;52.90;;;;;;4998242;28;20205;-73
2022/07/31 00:16:21;;;;;;;3.78;2.80;;;24.60;52.80;;;;;;4998372;28;20216;-73
2022/07/31 00:18:47;;;;;;;3.10;2.83;;;24.60;52.80;;;;;;4982225;28;20208;-74
2022/07/31 00:21:15;;;;;;;2.88;2.67;;;24.60;52.90;;;;;;4998126;28;20204;-74
2022/07/31 00:23:41;;;;;;;2.90;2.70;;;24.60;53.00;;;;;;4998451;28;20205;-74
2022/07/31 00:26:08;;;;;;;2.95;2.70;;;24.60;53.00;;;;;;4998149;28;20227;-73
2022/07/31 00:28:36;;;;;;;3.05;2.85;;;24.50;52.90;;;;;;4998127;28;20208;-73
2022/07/31 00:31:04;;;;;;;3.00;2.80;;;24.50;52.90;;;;;;4998600;28;20220;-73
2022/07/31 00:33:31;;;;;;;3.15;2.90;;;24.50;53.00;;;;;;4998110;28;20234;-73
2022/07/31 00:35:58;;;;;;;3.13;2.92;;;24.50;53.00;;;;;;4997841;28;20221;-73
2022/07/31 00:38:25;;;;;;;3.40;3.08;;;24.50;53.00;;;;;;4997946;28;20197;-75
2022/07/31 00:40:53;;;;;;;3.08;2.80;;;24.50;53.10;;;;;;4997810;28;20201;-72
2022/07/31 00:43:20;;;;;;;3.20;3.00;;;24.50;53.10;;;;;;5015339;28;20192;-73
2022/07/31 00:45:48;;;;;;;2.90;2.70;;;24.50;53.10;;;;;;4997655;28;20217;-73
2022/07/31 00:48:16;;;;;;;3.35;3.05;;;24.50;53.20;;;;;;4997548;28;20200;-75
2022/07/31 00:50:43;;;;;;;3.17;2.88;;;24.50;53.20;;;;;;4997378;28;20212;-73
2022/07/31 00:53:10;;;;;;;2.90;2.70;;;24.40;53.10;;;;;;4997465;28;20201;-73
2022/07/31 00:55:37;;;;;;;2.90;2.70;;;24.40;53.10;;;;;;4997517;28;20205;-74
2022/07/31 00:58:05;;;;;;;3.20;3.00;;;24.40;53.10;;;;;;4997533;28;20271;-74
2022/07/31 01:00:33;;;;;;;3.33;2.90;;;24.40;53.20;;;;;;4997703;28;20201;-74
2022/07/31 01:03:01;;;;;;;2.70;2.50;;;24.40;53.20;;;;;;4997282;28;20197;-73
2022/07/31 01:05:29;;;;;;;3.22;2.95;;;24.40;53.20;;;;;;4997103;28;20544;-75
2022/07/31 01:07:56;;;;;;;3.30;2.88;;;24.40;53.10;;;;;;4997201;28;20221;-73
2022/07/31 01:10:25;;;;;;;2.80;2.60;;;24.40;53.10;;;;;;4997407;28;20212;-75
2022/07/31 01:12:54;;;;;;;3.17;2.80;;;24.30;53.10;;;;;;4997139;28;20232;-73
2022/07/31 01:15:21;;;;;;;3.38;2.70;;;24.30;53.10;;;;;;4996863;28;20251;-74
2022/07/31 01:17:49;;;;;;;2.80;2.60;;;24.40;53.10;;;;;;4997924;28;20287;-73
2022/07/31 01:20:16;;;;;;;3.30;3.00;;;24.30;53.10;;;;;;4996980;28;20197;-75
2022/07/31 01:22:56;;;;;;;2.88;2.67;;;24.30;53.10;;;;;;4997015;28;20196;-74
2022/07/31 01:25:33;;;;;;;2.78;2.58;;;24.30;53.10;;;;;;4997120;28;20232;-74
2022/07/31 01:28:21;;;;;;;2.92;2.72;;;24.30;53.10;;;;;;4997658;28;20204;-73
2022/07/31 01:30:52;;;;;;;3.28;2.97;;;24.30;53.20;;;;;;4997734;28;20204;-73
2022/07/31 01:33:19;;;;;;;3.03;2.83;;;24.30;53.10;;;;;;4996820;28;20313;-74
2022/07/31 01:35:49;;;;;;;2.83;2.63;;;24.30;53.20;;;;;;4996833;28;20223;-73
2022/07/31 01:38:34;;;;;;;3.05;2.75;;;24.30;53.20;;;;;;4997563;28;20212;-74
2022/07/31 01:41:08;;;;;;;3.10;2.90;;;24.30;53.20;;;;;;4996538;28;20208;-73
2022/07/31 01:43:36;;;;;;;3.22;2.92;;;24.30;53.20;;;;;;4996714;28;20313;-74
2022/07/31 01:46:05;;;;;;;3.28;2.97;;;24.20;53.20;;;;;;4996876;28;20267;-74
2022/07/31 01:48:32;;;;;;;3.30;3.10;;;24.20;53.10;;;;;;4996570;28;20203;-74
2022/07/31 01:51:00;;;;;;;3.22;2.92;;;24.20;53.20;;;;;;4997352;28;20197;-74
2022/07/31 01:53:30;;;;;;;2.88;2.67;;;24.20;53.30;;;;;;4996507;28;20253;-74
2022/07/31 01:55:58;;;;;;;3.75;3.15;;;24.20;53.20;;;;;;4997035;28;20583;-74
2022/07/31 01:58:26;;;;;;;3.00;2.80;;;24.20;53.30;;;;;;4996656;28;20204;-74
2022/07/31 02:00:59;;;;;;;3.10;2.90;;;24.20;53.20;;;;;;4981686;28;20640;-75
2022/07/31 02:03:28;;;;;;;3.42;2.80;;;24.20;53.30;;;;;;4996451;28;20207;-73
2022/07/31 02:05:56;;;;;;;3.20;3.00;;;24.20;53.30;;;;;;4996273;28;20212;-73
2022/07/31 02:08:23;;;;;;;2.97;2.78;;;24.20;53.30;;;;;;4996544;28;20207;-73
2022/07/31 02:10:50;;;;;;;3.33;3.03;;;24.20;53.30;;;;;;4996671;28;20200;-74
2022/07/31 02:13:17;;;;;;;3.30;3.10;;;24.10;53.30;;;;;;4996305;28;20231;-74
2022/07/31 02:15:44;;;;;;;3.10;2.90;;;24.10;53.30;;;;;;4996256;28;20224;-73
2022/07/31 02:18:14;;;;;;;3.20;3.00;;;24.10;53.30;;;;;;4996952;28;20196;-73
2022/07/31 02:20:51;;;;;;;3.28;2.97;;;24.10;53.30;;;;;;4996851;28;20192;-74
2022/07/31 02:23:19;;;;;;;3.13;2.92;;;24.10;53.40;;;;;;4996208;28;20193;-73
2022/07/31 02:25:46;;;;;;;3.42;3.13;;;24.10;53.40;;;;;;4996289;28;20251;-73
2022/07/31 02:28:15;;;;;;;4.05;3.47;;;24.10;53.50;;;;;;4999065;28;20263;-73
2022/07/31 02:30:43;;;;;;;3.83;3.15;;;24.10;53.40;;;;;;5000146;28;20196;-73
2022/07/31 02:33:13;;;;;;;4.05;3.42;;;24.10;53.50;;;;;;5001080;28;20219;-73
2022/07/31 02:35:40;;;;;;;3.47;3.17;;;24.00;53.40;;;;;;5000332;28;20288;-73
2022/07/31 02:38:09;;;;;;;3.30;3.08;;;24.00;53.40;;;;;;5000117;28;20209;-74
2022/07/31 02:40:38;;;;;;;3.67;3.38;;;24.00;53.40;;;;;;4999869;28;20695;-74
2022/07/31 02:43:05;;;;;;;3.30;3.00;;;24.00;53.40;;;;;;4984050;28;20189;-73
2022/07/31 02:45:32;;;;;;;3.40;3.10;;;24.00;53.40;;;;;;4999941;28;20196;-74
2022/07/31 02:47:59;;;;;;;3.08;2.88;;;24.00;54.00;;;;;;4999876;28;20258;-73
2022/07/31 02:50:27;;;;;;;3.50;3.20;;;24.00;53.40;;;;;;5000003;28;20198;-73
2022/07/31 02:52:54;;;;;;;3.53;3.20;;;24.00;53.40;;;;;;5000235;28;20219;-73
2022/07/31 02:55:23;;;;;;;3.88;3.30;;;24.00;53.40;;;;;;4999764;28;20283;-74
2022/07/31 02:57:50;;;;;;;3.60;3.30;;;24.00;53.40;;;;;;4999854;28;20200;-73
2022/07/31 03:00:21;;;;;;;3.15;2.95;;;24.00;54.00;;;;;;4999939;28;20225;-73
2022/07/31 03:02:49;;;;;;;3.33;3.00;;;24.00;53.40;;;;;;4999640;28;20217;-74
2022/07/31 03:05:16;;;;;;;3.22;3.03;;;23.90;53.30;;;;;;4999638;28;20288;-73
2022/07/31 03:07:43;;;;;;;3.60;3.30;;;23.90;53.30;;;;;;4999626;28;20224;-73
2022/07/31 03:10:10;;;;;;;3.33;3.13;;;23.90;53.40;;;;;;5000590;28;20287;-73
2022/07/31 03:12:44;;;;;;;3.28;2.97;;;23.90;53.30;;;;;;4999470;28;20219;-73
2022/07/31 03:15:13;;;;;;;3.30;3.00;;;23.90;53.30;;;;;;4999393;28;20197;-74
2022/07/31 03:17:40;;;;;;;3.53;3.22;;;23.90;53.30;;;;;;5017084;28;20213;-75
2022/07/31 03:20:10;;;;;;;3.40;3.20;;;23.90;53.30;;;;;;5000090;28;20232;-74
2022/07/31 03:22:38;;;;;;;3.30;3.00;;;23.90;53.30;;;;;;4999400;28;20197;-73
2022/07/31 03:25:06;;;;;;;3.50;3.15;;;23.90;53.30;;;;;;4999299;28;20192;-73
2022/07/31 03:27:34;;;;;;;3.90;3.60;;;23.90;53.10;;;;;;4999187;28;20220;-74
2022/07/31 03:30:02;;;;;;;3.33;3.10;;;23.90;53.10;;;;;;4999480;28;20558;-73
2022/07/31 03:32:30;;;;;;;3.45;3.22;;;24.00;53.00;;;;;;4999370;28;20217;-74
2022/07/31 03:34:57;;;;;;;3.78;3.47;;;24.00;52.90;;;;;;4999636;28;20204;-73
2022/07/31 03:37:24;;;;;;;3.30;3.05;;;24.10;52.90;;;;;;4999933;28;20267;-73
2022/07/31 03:39:53;;;;;;;4.10;3.45;;;24.10;52.70;;;;;;5000341;28;20193;-74
2022/07/31 03:42:20;;;;;;;3.67;3.38;;;24.20;52.60;;;;;;5000699;28;20232;-73
2022/07/31 03:44:47;;;;;;;3.30;3.10;;;24.20;52.50;;;;;;4999685;28;20276;-73
2022/07/31 03:47:16;;;;;;;3.28;3.08;;;24.20;52.50;;;;;;4999840;28;20224;-73
2022/07/31 03:49:43;;;;;;;3.42;3.15;;;24.20;52.30;;;;;;4999419;28;20259;-74
2022/07/31 03:52:10;;;;;;;3.33;3.03;;;24.20;52.30;;;;;;4999615;28;20212;-73
2022/07/31 03:54:37;;;;;;;3.50;3.20;;;24.20;52.20;;;;;;5000868;28;20200;-74
2022/07/31 03:57:18;;;;;;;3.28;2.95;;;24.30;52.30;;;;;;5000896;28;20244;-73
2022/07/31 03:59:48;;;;;;;3.38;3.17;;;24.30;52.20;;;;;;4999023;28;20201;-73
2022/07/31 04:02:17;;;;;;;3.53;3.15;;;24.30;52.20;;;;;;4999342;28;20568;-74
2022/07/31 04:04:49;;;;;;;3.60;3.10;;;24.30;52.20;;;;;;4998703;28;20189;-74
2022/07/31 04:07:16;;;;;;;3.17;2.90;;;24.30;52.20;;;;;;4998714;28;20219;-73
2022/07/31 04:09:44;;;;;;;3.53;3.22;;;24.20;52.10;;;;;;4998572;28;20290;-74
2022/07/31 04:12:12;;;;;;;3.38;3.17;;;24.20;52.10;;;;;;4998404;28;20216;-74
2022/07/31 04:14:40;;;;;;;3.20;3.00;;;24.20;52.10;;;;;;4999601;28;20204;-73
2022/07/31 04:17:07;;;;;;;3.42;3.13;;;24.30;52.20;;;;;;4998743;28;20221;-73
2022/07/31 04:19:35;;;;;;;3.47;3.20;;;24.30;52.10;;;;;;4998225;28;20203;-74
2022/07/31 04:22:02;;;;;;;3.60;3.30;;;24.20;52.00;;;;;;4998355;28;20197;-74
2022/07/31 04:24:30;;;;;;;3.63;3.20;;;24.30;52.20;;;;;;4998786;28;20204;-73
2022/07/31 04:27:17;;;;;;;3.40;3.20;;;24.30;52.20;;;;;;4998074;28;20726;-73
2022/07/31 04:29:44;;;;;;;3.30;3.10;;;24.20;52.10;;;;;;4998293;28;20217;-74
2022/07/31 04:32:11;;;;;;;3.28;3.05;;;24.20;52.10;;;;;;4998042;28;20224;-74
2022/07/31 04:34:46;;;;;;;3.83;3.20;;;24.20;52.00;;;;;;4998737;28;20200;-74
2022/07/31 04:37:15;;;;;;;3.65;3.35;;;24.20;52.10;;;;;;4982155;28;20299;-72
2022/07/31 04:39:41;;;;;;;3.63;3.33;;;24.20;52.70;;;;;;4998448;28;20204;-74
2022/07/31 04:42:09;;;;;;;3.78;3.45;;;24.20;52.20;;;;;;4998226;28;20263;-74
2022/07/31 04:44:37;;;;;;;3.50;3.20;;;24.20;52.10;;;;;;4998372;28;20193;-73
2022/07/31 04:47:05;;;;;;;4.40;3.30;;;24.20;52.10;;;;;;4997783;28;20240;-74
2022/07/31 04:49:35;;;;;;;3.47;3.28;;;24.20;52.10;;;;;;4997233;28;20193;-75
2022/07/31 04:52:05;;;;;;;3.63;3.10;;;24.20;52.00;;;;;;4997666;28;20689;-75
2022/07/31 04:54:33;;;;;;;3.58;3.28;;;24.30;51.80;;;;;;4998753;28;20201;-75
2022/07/31 04:57:00;;;;;;;3.20;3.00;;;24.40;51.60;;;;;;4998018;28;20224;-74
2022/07/31 04:59:26;;;;;;;3.10;2.90;;;24.60;51.20;;;;;;4997904;28;20199;-74
2022/07/31 05:01:54;;;;;;;3.17;2.97;;;24.80;50.90;;;;;;4997674;28;20204;-75
2022/07/31 05:04:25;;;;;;;3.10;2.90;;;25.00;50.40;;;;;;4997835;28;20663;-74
2022/07/31 05:06:53;;;;;;;3.05;2.83;;;25.20;49.90;;;;;;4997479;28;20228;-74
2022/07/31 05:09:22;;;;;;;3.25;2.95;;;25.40;50.10;;;;;;4997544;28;20197;-74
2022/07/31 05:11:51;;;;;;;3.13;2.92;;;25.50;49.20;;;;;;4998729;28;20259;-74
2022/07/31 05:14:19;;;;;;;3.20;2.90;;;25.60;49.00;;;;;;4997465;28;20558;-74
2022/07/31 05:16:46;;;;;;;3.15;2.83;;;25.60;48.90;;;;;;4997442;28;20303;-75
2022/07/31 05:19:15;;;;;;;3.13;2.92;;;25.80;48.70;;;;;;4997357;28;20207;-75
2022/07/31 05:22:03;;;;;;;3.13;2.75;;;25.90;48.30;;;;;;5015122;28;20660;-74
2022/07/31 05:25:05;;;;;;;3.38;3.15;;;26.00;48.00;;;;;;4997202;28;20196;-74
2022/07/31 05:27:32;;;;;;;3.97;3.10;;;26.20;47.80;;;;;;4997403;28;20217;-74
2022/07/31 05:29:59;;;;;;;3.28;2.97;;;26.20;47.60;;;;;;4997212;28;20275;-74
2022/07/31 05:32:27;;;;;;;3.13;2.90;;;26.30;47.40;;;;;;4997213;28;20221;-74
2022/07/31 05:34:54;;;;;;;3.17;2.90;;;26.40;47.30;;;;;;4997055;28;20200;-75
2022/07/31 05:37:21;;;;;;;3.20;2.90;;;26.30;47.40;;;;;;4997312;28;20224;-74
2022/07/31 05:39:48;;;;;;;3.53;3.22;;;26.20;47.50;;;;;;4997134;28;20203;-74
2022/07/31 05:42:35;;;;;;;3.72;2.97;;;26.20;47.60;;;;;;5014374;28;20251;-75
2022/07/31 05:45:26;;;;;;;3.00;2.80;;;26.20;47.80;;;;;;5003640;28;20224;-74
2022/07/31 05:47:53;;;;;;;2.97;2.78;;;26.10;48.00;;;;;;4996939;28;20203;-75
2022/07/31 05:50:20;;;;;;;3.45;3.13;;;26.00;48.10;;;;;;4996634;28;20565;-74
2022/07/31 05:52:48;;;;;;;3.33;3.03;;;26.00;48.20;;;;;;4996989;28;20209;-75
2022/07/31 05:55:31;;;;;;;3.10;2.90;;;25.90;48.20;;;;;;4997019;28;20211;-75
2022/07/31 05:58:23;;;;;;;3.38;2.75;;;25.90;48.40;;;;;;5003580;28;20209;-74
2022/07/31 06:00:51;;;;;;;3.15;2.85;;;25.80;48.40;;;;;;4996312;28;20200;-75
2022/07/31 06:03:22;;;;;;;4.15;3.03;;;25.80;48.50;;;;;;4995920;28;20197;-74
2022/07/31 06:05:59;;;;;;;2.78;2.58;;;25.80;48.60;;;;;;4997002;28;20220;-75
2022/07/31 06:08:26;;;;;;;3.30;3.00;;;25.80;48.70;;;;;;4996972;28;20231;-75
2022/07/31 06:10:52;;;;;;;3.20;2.90;;;25.80;48.80;;;;;;4996727;28;20751;-75
2022/07/31 06:13:25;;;;;;;3.10;2.90;;;25.70;48.70;;;;;;4996734;28;20223;-74
2022/07/31 06:15:52;;;;;;;3.20;2.90;;;25.70;48.50;;;;;;4996504;28;20220;-74
2022/07/31 06:18:21;;;;;;;3.08;2.78;;;25.70;48.60;;;;;;4996525;28;20616;-74
2022/07/31 06:20:50;;;;;;;3.13;2.85;;;25.70;48.70;;;;;;4997518;28;20262;-74
2022/07/31 06:23:17;;;;;;;3.55;2.90;;;25.80;48.70;;;;;;4996384;28;20193;-74
2022/07/31 06:25:44;;;;;;;3.13;2.92;;;25.70;48.30;;;;;;4996560;28;20247;-75
2022/07/31 06:28:12;;;;;;;2.97;2.78;;;25.70;48.50;;;;;;4996421;28;20247;-75
2022/07/31 06:30:42;;;;;;;3.45;3.00;;;25.70;48.50;;;;;;4996301;28;20196;-75
2022/07/31 06:33:09;;;;;;;3.05;2.75;;;25.70;48.60;;;;;;4996174;28;20721;-75
2022/07/31 06:35:37;;;;;;;3.05;2.80;;;25.70;48.50;;;;;;4980395;28;20247;-74
2022/07/31 06:38:32;;;;;;;4.93;2.60;;;25.70;48.40;;;;;;4996855;28;20204;-74
2022/07/31 06:44:21;;;;;;;3.05;2.80;;;25.70;48.30;;;;;;5009494;28;20670;-74
2022/07/31 06:47:08;;;;;;;2.90;2.70;;;25.70;48.80;;;;;;5014094;28;20308;-74
2022/07/31 06:49:55;;;;;;;2.85;2.65;;;25.70;48.70;;;;;;4993042;28;20228;-74
2022/07/31 06:52:26;;;;;;;2.83;2.53;;;25.70;48.80;;;;;;4996404;28;20250;-76
2022/07/31 06:54:54;;;;;;;2.95;2.75;;;25.70;48.70;;;;;;4996171;28;20197;-74
2022/07/31 06:57:21;;;;;;;2.80;2.60;;;25.70;48.40;;;;;;4996224;28;20278;-75
2022/07/31 06:59:48;;;;;;;3.20;2.90;;;25.80;48.70;;;;;;4996613;28;20196;-75
2022/07/31 07:02:16;;;;;;;2.80;2.60;;;25.80;48.60;;;;;;4996135;28;20236;-74
2022/07/31 07:04:43;;;;;;;3.38;3.08;;;25.90;48.40;;;;;;4995997;28;20197;-74
2022/07/31 07:07:10;;;;;;;2.80;2.60;;;25.90;48.20;;;;;;4996097;28;20655;-74
2022/07/31 07:09:37;;;;;;;2.80;2.60;;;25.90;48.50;;;;;;4996003;28;20659;-74
2022/07/31 07:12:05;;;;;;;2.95;2.47;;;25.90;48.00;;;;;;4996055;28;20664;-74
2022/07/31 07:14:32;;;;;;;3.03;2.72;;;25.90;48.00;;;;;;4999103;28;20328;-75
2022/07/31 07:17:03;;;;;;;3.22;2.92;;;25.90;48.20;;;;;;4999610;28;20220;-75
2022/07/31 07:19:32;;;;;;;2.70;2.50;;;25.90;48.20;;;;;;4999633;28;20674;-74
2022/07/31 07:21:59;;;;;;;3.92;2.35;;;26.00;48.30;;;;;;4999699;28;20231;-75
2022/07/31 07:24:27;;;;;;;3.05;2.75;;;26.00;48.30;;;;;;4999983;28;20201;-75
2022/07/31 07:27:04;;;;;;;2.78;2.58;;;26.00;48.10;;;;;;4999506;28;20224;-74
2022/07/31 07:29:32;;;;;;;2.70;2.50;;;26.20;48.70;;;;;;4999726;28;20251;-74
2022/07/31 07:31:59;;;;;;;2.50;2.30;;;26.20;48.40;;;;;;4999235;28;20200;-74
2022/07/31 07:34:26;;;;;;;2.53;2.17;;;26.30;47.70;;;;;;4999759;28;20217;-74
2022/07/31 07:36:55;;;;;;;3.03;2.60;;;26.30;47.60;;;;;;4999478;28;20227;-74
2022/07/31 07:39:26;;;;;;;2.92;2.47;;;26.40;47.60;;;;;;5000295;28;20555;-74
2022/07/31 07:41:53;;;;;;;2.42;2.22;;;26.50;47.40;;;;;;4999366;28;20209;-74
2022/07/31 07:44:20;;;;;;;2.50;2.30;;;26.50;47.30;;;;;;4999242;28;20192;-74
2022/07/31 07:46:48;;;;;;;2.72;2.50;;;26.50;47.20;;;;;;4999095;28;20252;-74
2022/07/31 07:49:17;;;;;;;2.78;2.58;;;26.60;47.10;;;;;;4983384;28;20197;-75
2022/07/31 07:52:06;;;;;;;2.65;2.45;;;26.70;47.00;;;;;;5015573;28;20598;-75
2022/07/31 07:54:53;;;;;;;2.70;2.50;;;26.70;47.00;;;;;;5016380;28;20311;-75
2022/07/31 07:57:39;;;;;;;2.60;2.40;;;26.70;46.80;;;;;;5016404;28;20227;-75
2022/07/31 08:00:44;;;;;;;2.22;2.13;;;26.70;46.90;;;;;;5016025;28;20231;-74
2022/07/31 08:03:11;;;;;;;2.63;2.42;;;26.70;47.00;;;;;;4998908;28;20211;-74
2022/07/31 08:05:40;;;;;;;2.85;2.65;;;26.70;47.00;;;;;;4998505;28;20197;-75
2022/07/31 08:08:08;;;;;;;2.95;2.60;;;26.60;47.10;;;;;;4998826;28;20554;-74
2022/07/31 08:11:03;;;;;;;2.55;2.35;;;26.60;47.10;;;;;;5016140;28;20202;-74
2022/07/31 08:13:55;;;;;;;2.70;2.50;;;26.60;47.20;;;;;;4986580;28;20216;-75
2022/07/31 08:16:41;;;;;;;2.80;2.47;;;26.60;47.30;;;;;;5016159;28;20228;-75
2022/07/31 08:19:08;;;;;;;2.63;2.42;;;26.60;47.30;;;;;;4998661;28;20250;-74
2022/07/31 08:21:36;;;;;;;2.72;2.45;;;26.60;47.40;;;;;;4999442;28;20247;-75
2022/07/31 08:24:06;;;;;;;2.45;2.25;;;26.60;47.40;;;;;;4982271;28;20243;-74
2022/07/31 08:29:14;;;;;;;2.60;2.40;;;26.60;47.40;;;;;;4997530;28;20189;-74
2022/07/31 08:31:43;;;;;;;2.50;2.30;;;26.60;47.30;;;;;;4982483;28;20259;-74
2022/07/31 08:34:28;;;;;;;4.28;2.50;;;26.70;47.30;;;;;;4999009;28;20235;-73
2022/07/31 08:36:55;;;;;;;2.90;2.20;;;26.70;47.20;;;;;;4998376;28;20216;-74
2022/07/31 08:39:24;;;;;;;2.35;2.13;;;26.80;47.00;;;;;;4998030;28;20196;-74
2022/07/31 08:42:04;;;;;;;2.60;2.40;;;26.90;46.80;;;;;;4998459;28;20210;-75
2022/07/31 08:44:31;;;;;;;2.20;2.10;;;27.00;46.50;;;;;;4998133;28;20220;-75
2022/07/31 08:46:59;;;;;;;2.58;2.38;;;27.10;46.50;;;;;;4998176;28;20212;-73
2022/07/31 08:49:26;;;;;;;2.53;2.28;;;27.20;46.40;;;;;;4998605;28;20196;-74
2022/07/31 08:51:54;;;;;;;4.15;2.40;;;27.30;46.20;;;;;;4998043;28;20192;-75
2022/07/31 08:54:51;;;;;;;2.60;2.40;;;27.40;45.90;;;;;;4998108;28;20223;-75
2022/07/31 08:57:19;;;;;;;2.50;2.30;;;27.50;45.60;;;;;;4997703;28;20322;-74
2022/07/31 08:59:47;;;;;;;2.17;1.98;;;27.60;45.30;;;;;;4998299;28;20196;-75
2022/07/31 09:02:15;;;;;;;2.47;2.28;;;27.80;45.10;;;;;;4997689;28;20200;-74
2022/07/31 09:04:59;;;;;;;2.20;2.10;;;27.90;44.80;;;;;;4997866;28;20220;-74
2022/07/31 09:07:26;;;;;;;2.22;2.03;;;28.10;44.50;;;;;;5015019;28;20262;-75
2022/07/31 09:09:55;;;;;;;2.03;1.92;;;28.20;44.10;;;;;;4997464;28;20196;-74
2022/07/31 09:12:29;;;;;;;2.50;2.30;;;28.30;43.90;;;;;;4997216;28;20219;-75
2022/07/31 09:15:04;;;;;;;2.40;2.20;;;28.40;43.70;;;;;;4997596;28;20208;-74
2022/07/31 09:17:35;;;;;;;2.17;2.00;;;28.60;43.50;;;;;;4997554;28;20215;-74
2022/07/31 09:20:04;;;;;;;2.40;2.20;;;28.70;43.30;;;;;;4997529;28;20670;-74
2022/07/31 09:22:34;;;;;;;2.30;2.10;;;28.70;43.00;;;;;;4997775;28;20283;-74
2022/07/31 09:25:14;;;;;;;2.20;2.10;;;28.80;43.00;;;;;;4981752;28;20203;-74
2022/07/31 09:27:42;;;;;;;2.38;2.17;;;28.80;42.90;;;;;;4997253;28;20634;-74
2022/07/31 09:30:10;;;;;;;2.13;2.03;;;28.90;42.70;;;;;;4997457;28;20215;-73
2022/07/31 09:33:13;;;;;;;2.45;2.25;;;28.90;42.60;;;;;;4944933;28;20294;-75
2022/07/31 09:36:01;;;;;;;2.10;2.00;;;29.00;42.50;;;;;;4974363;28;20264;-75
2022/07/31 09:38:31;;;;;;;2.40;2.20;;;29.00;42.50;;;;;;4997279;28;20196;-75
2022/07/31 09:41:19;;;;;;;2.20;2.00;;;29.00;42.50;;;;;;5014609;28;20595;-74
2022/07/31 09:44:09;;;;;;;2.10;2.00;;;29.10;42.40;;;;;;4996973;28;20199;-74
2022/07/31 09:46:40;;;;;;;2.25;2.10;;;29.10;42.40;;;;;;4981091;28;20220;-74
2022/07/31 09:49:07;;;;;;;2.00;1.90;;;29.10;42.40;;;;;;4996952;28;20207;-75
2022/07/31 09:51:38;;;;;;;2.22;2.13;;;29.10;42.40;;;;;;4996795;28;20619;-76
2022/07/31 09:54:05;;;;;;;1.90;1.80;;;29.10;42.40;;;;;;4997189;28;20239;-74
2022/07/31 09:56:52;;;;;;;2.10;1.98;;;29.10;42.50;;;;;;5014493;28;20347;-75
2022/07/31 09:59:21;;;;;;;2.28;1.90;;;29.00;42.60;;;;;;4996649;28;20613;-74
2022/07/31 10:01:48;;;;;;;2.15;1.95;;;28.90;42.90;;;;;;4996856;28;20207;-76
2022/07/31 10:04:16;;;;;;;2.22;2.03;;;28.80;43.00;;;;;;4996558;28;20662;-74
2022/07/31 10:06:45;;;;;;;1.98;1.88;;;28.60;43.30;;;;;;4996502;28;20273;-74
2022/07/31 10:09:12;;;;;;;2.03;1.83;;;28.50;43.50;;;;;;4996952;28;20203;-76
2022/07/31 10:12:04;;;;;;;2.30;2.10;;;28.40;43.70;;;;;;4995243;28;20200;-73
2022/07/31 10:14:38;;;;;;;2.35;2.20;;;28.40;43.90;;;;;;4996668;28;20597;-74
2022/07/31 10:17:06;;;;;;;2.03;1.90;;;28.30;44.00;;;;;;4996943;28;20258;-76
2022/07/31 10:20:00;;;;;;;2.10;2.00;;;28.30;44.20;;;;;;5003717;28;20200;-75
2022/07/31 10:22:47;;;;;;;2.10;2.00;;;28.20;44.20;;;;;;5014469;28;20191;-74
2022/07/31 10:25:21;;;;;;;2.05;1.92;;;28.20;44.20;;;;;;4996871;28;20196;-74
2022/07/31 10:27:50;;;;;;;2.08;1.98;;;28.20;44.20;;;;;;4997160;28;20220;-75
2022/07/31 10:30:17;;;;;;;1.95;1.85;;;28.20;44.20;;;;;;4996906;28;20230;-74
2022/07/31 10:32:51;;;;;;;2.25;2.05;;;28.30;44.20;;;;;;4997295;28;20202;-75
2022/07/31 10:35:41;;;;;;;2.05;1.95;;;28.30;44.30;;;;;;5013707;28;20721;-73
2022/07/31 10:38:23;;;;;;;2.05;1.95;;;28.30;44.30;;;;;;4996615;28;20204;-73
2022/07/31 10:41:07;;;;;;;2.30;1.92;;;28.20;44.30;;;;;;4996707;28;20211;-73
2022/07/31 10:43:41;;;;;;;2.30;2.10;;;28.20;44.40;;;;;;4996455;28;20188;-74
2022/07/31 10:46:14;;;;;;;2.28;2.08;;;28.20;44.60;;;;;;4996761;28;20216;-74
2022/07/31 10:48:51;;;;;;;2.28;2.08;;;28.10;44.60;;;;;;4998614;28;20196;-74
2022/07/31 10:51:47;;;;;;;2.20;2.10;;;28.10;44.60;;;;;;5017076;28;20219;-74
2022/07/31 10:54:39;;;;;;;1.80;1.70;;;28.10;44.60;;;;;;5017906;28;20207;-74
2022/07/31 10:57:25;;;;;;;1.90;1.80;;;28.10;44.70;;;;;;4989912;28;20242;-74
2022/07/31 11:00:18;;;;;;;2.05;1.95;;;28.10;45.40;;;;;;5017749;28;20255;-73
2022/07/31 11:03:15;;;;;;;2.17;1.98;;;28.10;44.90;;;;;;4974514;28;20563;-73
2022/07/31 11:06:01;;;;;;;2.15;1.95;;;28.00;45.00;;;;;;5018319;28;20214;-75
2022/07/31 11:08:48;;;;;;;1.95;1.83;;;28.00;45.00;;;;;;5018055;28;20642;-74
2022/07/31 11:11:34;;;;;;;2.10;2.00;;;28.00;45.10;;;;;;5017555;28;20187;-73
2022/07/31 11:14:31;;;;;;;2.00;1.90;;;27.90;45.20;;;;;;5006513;28;20220;-74
2022/07/31 11:17:32;;;;;;;1.90;1.80;;;27.90;45.20;;;;;;5017071;28;20212;-74
2022/07/31 11:20:21;;;;;;;2.00;1.90;;;27.90;45.30;;;;;;5009810;28;20251;-74
2022/07/31 11:22:59;;;;;;;2.00;1.90;;;27.90;45.40;;;;;;4999836;28;20262;-75
2022/07/31 11:25:29;;;;;;;2.10;2.00;;;27.90;45.50;;;;;;4999689;28;20563;-75
2022/07/31 11:27:57;;;;;;;2.10;2.00;;;27.80;45.40;;;;;;4983905;28;20295;-74
2022/07/31 11:30:24;;;;;;;1.90;1.80;;;27.80;45.50;;;;;;4999562;28;20232;-74
2022/07/31 11:32:53;;;;;;;2.00;1.90;;;27.80;45.40;;;;;;4999747;28;20196;-73
2022/07/31 11:35:25;;;;;;;2.10;2.00;;;27.90;45.50;;;;;;4999212;28;20215;-73
2022/07/31 11:37:51;;;;;;;1.83;1.73;;;27.90;45.50;;;;;;4999403;28;20200;-74
2022/07/31 11:40:19;;;;;;;2.13;1.92;;;27.90;45.50;;;;;;4999284;28;20236;-74
2022/07/31 11:42:46;;;;;;;2.00;1.90;;;27.90;45.50;;;;;;4983183;28;20231;-74
2022/07/31 11:45:14;;;;;;;1.92;1.80;;;27.90;45.50;;;;;;4999356;28;20196;-74
2022/07/31 11:47:41;;;;;;;2.00;1.90;;;27.90;45.50;;;;;;4999092;28;20223;-74
2022/07/31 11:50:10;;;;;;;1.80;1.70;;;27.90;45.50;;;;;;4998963;28;20206;-75
2022/07/31 11:52:37;;;;;;;1.90;1.80;;;27.90;45.50;;;;;;4999069;28;20210;-73
2022/07/31 11:55:06;;;;;;;2.22;2.10;;;27.90;45.50;;;;;;4998824;28;20222;-74
2022/07/31 11:57:33;;;;;;;1.90;1.80;;;27.90;45.50;;;;;;4998942;28;20270;-74
2022/07/31 12:00:07;;;;;;;2.28;2.10;;;27.90;45.50;;;;;;4998860;28;20295;-74
2022/07/31 12:02:42;;;;;;;2.00;1.90;;;27.90;45.50;;;;;;5000079;28;20180;-74
2022/07/31 12:05:12;;;;;;;2.20;2.10;;;27.90;45.50;;;;;;4999878;28;20200;-74
2022/07/31 12:07:40;;;;;;;2.00;1.90;;;27.90;45.50;;;;;;4998585;28;20251;-73
2022/07/31 12:10:12;;;;;;;1.90;1.80;;;27.90;45.50;;;;;;4998791;28;20207;-74
2022/07/31 12:12:41;;;;;;;1.80;1.70;;;27.90;45.50;;;;;;4999030;28;20203;-74
2022/07/31 12:15:16;;;;;;;2.30;2.10;;;27.90;45.50;;;;;;4998569;28;20635;-73
2022/07/31 12:17:43;;;;;;;2.10;2.00;;;27.90;45.50;;;;;;4998625;28;20219;-73
2022/07/31 12:20:12;;;;;;;2.45;1.70;;;27.90;45.60;;;;;;4998621;28;20204;-74
2022/07/31 12:22:40;;;;;;;1.83;1.73;;;27.90;45.60;;;;;;4998615;28;20204;-75
2022/07/31 12:25:11;;;;;;;1.85;1.75;;;27.90;45.50;;;;;;4998631;28;20277;-75
2022/07/31 12:27:39;;;;;;;1.85;1.75;;;27.90;45.60;;;;;;4998674;28;20725;-74
2022/07/31 12:30:14;;;;;;;1.80;1.70;;;27.90;45.60;;;;;;4998569;28;20200;-73
2022/07/31 12:32:40;;;;;;;1.90;1.80;;;27.90;45.60;;;;;;4998516;28;20211;-74
2022/07/31 12:35:08;;;;;;;2.00;1.90;;;27.90;45.60;;;;;;5016276;28;20219;-73
2022/07/31 12:37:49;;;;;;;1.83;1.73;;;27.90;45.70;;;;;;4998244;28;20216;-73
2022/07/31 12:40:24;;;;;;;1.92;1.80;;;27.90;45.70;;;;;;4998182;28;20207;-74
2022/07/31 12:42:51;;;;;;;1.70;1.60;;;27.90;45.80;;;;;;4998045;28;20614;-73
2022/07/31 12:45:31;;;;;;;1.80;1.70;;;27.90;45.80;;;;;;4998199;28;20196;-74
2022/07/31 12:47:58;;;;;;;2.00;1.90;;;27.90;45.80;;;;;;4998308;28;20566;-74
2022/07/31 12:50:27;;;;;;;1.80;1.70;;;27.90;46.40;;;;;;4997841;28;20220;-74
2022/07/31 12:52:56;;;;;;;1.80;1.70;;;27.90;45.80;;;;;;4998171;28;20200;-73
2022/07/31 12:55:24;;;;;;;1.80;1.70;;;27.90;45.90;;;;;;4997983;28;20216;-73
2022/07/31 12:57:51;;;;;;;1.80;1.70;;;27.90;45.90;;;;;;4998249;28;20204;-74
2022/07/31 13:00:18;;;;;;;1.80;1.70;;;27.90;45.80;;;;;;4998269;28;20247;-74
2022/07/31 13:02:46;;;;;;;2.00;1.90;;;27.90;45.90;;;;;;4997637;28;20196;-73
2022/07/31 13:05:13;;;;;;;1.90;1.80;;;27.90;45.90;;;;;;4997773;28;20196;-74
2022/07/31 13:07:40;;;;;;;1.90;1.80;;;27.90;45.90;;;;;;4997506;28;20223;-74
2022/07/31 13:10:09;;;;;;;2.00;1.90;;;27.90;46.00;;;;;;4997593;28;20196;-74
2022/07/31 13:12:36;;;;;;;1.90;1.80;;;27.80;45.90;;;;;;5014740;28;20718;-75
2022/07/31 13:15:03;;;;;;;1.90;1.80;;;27.80;45.90;;;;;;5014981;28;20605;-73
2022/07/31 13:17:30;;;;;;;1.73;1.63;;;27.80;46.00;;;;;;4997538;28;20226;-74